ADQ - Kodiak

Pirep is a free, collaborative database of all public and private airports located within the United States. All pilots are welcome to contribute, edit, and improve any airport they have local knowledge about, no registration required.
Uploaded photos will be licensed under a CC BY-SA 4.0 license. Please only upload photos you have the rights to use.
Tags
Public
METAR / TAF
Webcam
Lodging
Car Rental
Edit Tags
Food
Camping
Bicycles
Swimming
Golfing
Fishing
Hot Springs
Museum
Flying Clubs
Airpark
Upcoming Events
No upcoming events. Is anything happening here soon?
*
*
*

Where exactly on/near the airport is this event taking place?

Is there a webpage with more information for this event?

Who should be contacted for more information?

What is this event all about?

Repeat every
Description
Last updated: 2024-04-06 20:45:05 AKDT
Transient Parking
Fuel Location
Landing & Tie-down Fees
Crew Car Availability
Flying Clubs
WiFi Access
Airport Statistics
Location: Kodiak, AK
Elevation: 78ft
Sectional: Kodiak
Activation date: Apr 1948
Fuel: 100LL, A1 (prices)
Runway 08/26: 7,534ft
Runway 11/29: 5,400ft
Runway 01/19: 5,010ft
Access: Open to the public
Current Weather — VFR
  • Weather data is strictly informational and not for flight planning purposes.
  • METAR
    2024-05-28 14:53:00 AKDT
    Ceiling Wind Temperature Dewpoint Weather Visbility
    Sky clear 120° @ 13kt 51°F 39°F N/A 10SM
    Clouds: Few @ 3,100ft
    Raw: PADQ 282253Z 12013KT 10SM FEW031 11/04 A2987 RMK AO2 SLP114 T01110039 $
  • TAF
    2024-05-28 10:00:00 AKDT – 2024-05-29 00:00:00 AKDT
    Ceiling Wind Weather Visbility
    2,000ft 110° @ 8kt N/A 6SM
    Clouds: Scattered @ 1,500ft, Broken @ 2,000ft
    Raw: PADQ 281729Z 2818/2918 11008KT P6SM SCT015 BKN020 FM290800 09011KT P6SM VCSH BKN030 FM291300 09015KT P6SM -RA OVC025
  • TAF
    2024-05-29 00:00:00 AKDT – 2024-05-29 05:00:00 AKDT
    Ceiling Wind Weather Visbility
    3,000ft 90° @ 11kt Showers in vicinity 6SM
    Clouds: Broken @ 3,000ft
    Raw: PADQ 281729Z 2818/2918 11008KT P6SM SCT015 BKN020 FM290800 09011KT P6SM VCSH BKN030 FM291300 09015KT P6SM -RA OVC025
  • TAF
    2024-05-29 05:00:00 AKDT – 2024-05-29 10:00:00 AKDT
    Ceiling Wind Weather Visbility
    2,500ft 90° @ 15kt Light rain 6SM
    Clouds: Overcast @ 2,500ft
    Raw: PADQ 281729Z 2818/2918 11008KT P6SM SCT015 BKN020 FM290800 09011KT P6SM VCSH BKN030 FM291300 09015KT P6SM -RA OVC025
Click/tap to add an annotation marker to the map
Direct links to live image URLs will be displayed inline on this page. URLs to separate webpages will be linked to.
URL:
Direct links to live image URLs will be displayed inline on this page. URLs to separate webpages will be linked to.
URL:
Remarks
  • Clsd to acr opns with more than 30 psgr seats excp ppr in writing to amgr p.o. box 1500 anton larson road kodiak ak 99615.
  • Jasu-5(a/m32a-86); 1(ma-1a). available uscg only.
  • First 3000 ft rwy 08 & first 2000 ft rwy 01, & associated txys not visible from twr.
  • Deer numerous seabirds and migratory waterfowl on and invof of arpt.
  • No snow removal or deicing for rwy, txy, and ramp, daily 1830-0500 local.
Comments
Leave a comment What was your experience like at this airport?